Main page
METAR-TAF:

METAR-TAF

Airports :

Presque_Isle_County_Airport

Rogers City, Michigan, United States

latitude: 45-24-25N, longitude: 083-48-46W, elevation: 669 ft

Current weather observation

The report was made 7 minutes ago, at 18:55 UTC
Wind 8 mph from the North
Temperature 32°F
Humidity 43%
Pressure 30.34 in. Hg
Visibility: 10 miles
Clear sky

METAR: KPZQ 241855Z AUTO 35007KT 10SM CLR 00/M11 A3034 RMK AO2 T00041107

Time: 15:02 (19:02 UTC)


TAF: missing

Weather observations and forecasts of more than 4000 airports (METAR and TAF reports).

The available stations are represented by yellow and red dots on the map.

Hover mouse over dot to see the name of the station.

Then click to see weather observations and forecasts.

To change the map : click on the green buttons with a black cross to zoom in, on the green button with a dash to zoom out, or on the green arrows for adjacent maps.


METAR-TAF: